x

Virginia Beach 64 Nm East Of Virginia Beach, Va (44014) Wave Buoy

9:50 - Mon 27th Apr 2015 All times are EDT. -4 hours from GMT.

  • Sig Wave height 2.0ft
  • Swell Direction
  • Peak Period 8s
  • Average Period 5s
  • Wind
    11mph, 13mph gusts
  • Sea Temp 55°f
  • Ar Temp 55°f
  • Sea Pressure 1009.4mb
  • Virginia Beach 64 Nm East Of Virginia Beach, Va
  • Virginia Beach 64 Nm East Of Virginia Beach, Va

More Historic Weather Station data

Upgrade to MSW Pro to gain access to the past 30 days of data for over 8000 Wavebouys and Weather Stations around the globe.

Join Pro

Comparision Forecast

View Surf forecast
   
Seg 04/27 9:50 2ft 8s 5s 11 13 mph 1009.4mb 55f 55f
8:50 2.5ft 9s 5s 9 11 mph 1008.8mb 55f 55f
7:50 2.5ft 7s 5s 9 11 mph 1007.8mb 55f 55f
6:50 2.5ft 8s 5s 11
mph
1008mb 56f 55f
5:50 2.5ft 8s 5s 7
mph
1007.9mb 56f 56f
4:50 2.5ft 7s 5s 11 13 mph 1007mb 56f 54f
3:50 2.5ft 7s 5s 16 18 mph 1006.4mb 56f 53f
2:50 2.5ft 8s 5s 11 13 mph 1007.1mb 56f 53f
1:50 3ft 8s 5s 13 16 mph 1007.3mb 56f 53f
12:50 3ft 7s 5s 13 16 mph 1007.7mb 56f 53f
11:50 3ft 8s 5s 13 16 mph 1007.4mb 56f 54f
10:50 3ft 7s 6s 11 13 mph 1007.1mb 56f 54f
9:50 3.5ft 7s 6s 11 13 mph 1006.8mb 55f 54f
8:50 3.5ft 7s 6s 11 13 mph 1006.8mb 55f 53f
7:50 3.5ft 7s 6s 11 13 mph 1006.8mb 55f 53f
6:50 3.5ft 7s 6s 11 13 mph 1006.1mb 55f 55f
5:50 4ft 7s 6s 9 11 mph 1005.7mb 55f 55f
4:50 4ft 8s 5s 11 13 mph 1005.6mb 55f 54f
3:50 4ft 8s 5s 11
mph
1005.3mb 55f 54f
2:50 4.5ft 7s 5s 9
mph
1005.5mb 55f 54f
1:50 4.5ft 7s 5s 13 16 mph 1005.3mb 55f 54f
12:50 4.5ft 7s 5s 13 16 mph 1005.7mb 55f 54f
Dom 04/26 11:50 4.5ft 6s 5s 11 13 mph 1006.1mb 55f 54f
10:50 4.5ft 6s 5s 16 18 mph 1006.1mb 55f 53f
9:50 5ft 6s 5s 16 18 mph 1005.6mb 56f 56f
8:50 5ft 6s 5s 18 22 mph 1005.2mb 56f 56f
7:50 5ft 5s 5s 20 22 mph 1004.7mb 56f 56f
6:50 5ft 6s 5s 20 27 mph 1003.9mb 56f 55f
5:50 5ft 6s 5s 20 22 mph 1003.8mb 57f 54f
4:50 5ft 6s 5s 20 25 mph 1003.7mb 57f 53f
3:50 6ft 6s 5s 22 25 mph 1003.2mb 57f 53f
2:50 5.5ft 6s 5s 22 27 mph 1002.8mb 57f 52f
1:50 6ft 6s 5s 25 29 mph 1003.1mb 57f 52f
12:50 6ft 6s 5s 25 29 mph 1002.9mb 58f 52f
11:50 5.5ft 6s 5s 22 27 mph 1002.7mb 59f 53f
10:50 5ft 6s 5s 20 25 mph 1002.1mb 59f 54f
9:50 6ft 6s 5s 18 22 mph 1002.1mb 59f 55f
8:50 6ft 6s 5s 20 22 mph 1001.4mb 59f 54f
7:50 6ft 6s 5s 22 27 mph 1001.6mb 59f 54f
6:50 5.5ft 6s 5s 25 27 mph 1001.1mb 59f 53f
5:50 6ft 6s 5s 22 27 mph 1001.2mb 59f 52f
4:50 5ft 5s 5s 22 27 mph 1000.8mb 58f 54f
3:50 4ft 4s 4s 25 27 mph 1000.5mb 57f 54f
2:50 3.5ft 4s 4s 22 27 mph 1001.1mb 57f 55f
1:50 3.5ft 4s 4s 20 25 mph 1001.7mb 57f 54f
12:50 3ft 4s 4s 22 25 mph 1002.4mb 58f 54f
Sáb 04/25 11:50 2.5ft 4s 4s 20 22 mph 1002.2mb 59f 55f
10:50 2.5ft 6s 4s 20 22 mph 1003.4mb 59f 54f
9:50 2.5ft 7s 4s 20 22 mph 1004.4mb 59f 53f
8:50 2.5ft 7s 4s 20 22 mph 1005.5mb 59f 51f
7:50 2.5ft 7s 5s 13 18 mph 1007.1mb 59f 51f
6:50 2.5ft 7s 5s 16 18 mph 1008mb 59f 50f
5:50 2.5ft 7s 5s 16 18 mph 1008.3mb 58f 52f
4:50 2.5ft 5s 5s 11 13 mph 1008.8mb 58f 53f
3:50 2.5ft 5s 5s 11 13 mph 1009.6mb 59f 54f
2:50 2ft 5s 5s 9 11 mph 1010.8mb 59f 54f
1:50 1.6ft 12s 5s 7 9 mph 1012mb 59f 55f
12:50 1.6ft 11s 5s 9 11 mph 1012.6mb 59f 54f
11:50 1.6ft 12s 5s 11 16 mph 1013.3mb 59f 55f
10:50 1.6ft 13s 5s 7 9 mph 1014.4mb 59f 55f
9:50 1.6ft 12s 5s 9 11 mph 1013.4mb 60f 54f
8:50 1.6ft 13s 6s 11 13 mph 1013.4mb 60f 55f
7:50 1.6ft 6s 5s 9 11 mph 1013.6mb 60f 57f
6:50 1.6ft 13s 6s 4 7 mph 1013.6mb 60f 57f
5:50 1.6ft 12s 5s 4
mph
1013.1mb 61f 57f
4:50 2ft 14s 5s 9
mph
1013.3mb 62f 57f
3:50 2ft 14s 5s 9 11 mph 1013.5mb 62f 56f
2:50 2ft 14s 4s 9 11 mph 1013.7mb 62f 55f
1:50 2.5ft 14s 5s 11 13 mph 1014mb 62f 55f
12:50 2.5ft 6s 5s 11 13 mph 1014.5mb 63f 55f
Sex 04/24 11:50 3ft 6s 5s 9 11 mph 1014.6mb 63f 54f
10:50 3ft 5s 5s 4 7 mph 1014.7mb 63f 55f
9:50 3.5ft 6s 5s 4 7 mph 1014.7mb 63f 54f
8:50 4.5ft 6s 5s 7 9 mph 1014.3mb 63f 54f
7:50 5ft 7s 5s 13 16 mph 1013.5mb 63f 53f
6:50 5.5ft 6s 5s 13 16 mph 1013.6mb 63f 53f
5:50 5.5ft 7s 5s 16 18 mph 1013.7mb 63f 52f
4:50 6ft 7s 5s 18 22 mph 1013.8mb 63f 51f
3:50 6ft 7s 5s 18 20 mph 1014mb 60f 50f
2:50 7ft 7s 5s 22 27 mph 1014.1mb 59f 49f
1:50 6.5ft 7s 5s 22 31 mph 1014.7mb 59f 48f
12:50 6ft 6s 5s 25 31 mph 1014.9mb 59f 48f
11:50 5.5ft 5s 5s 25 31 mph 1015.1mb 59f 47f
10:50 5.5ft 6s 5s 27 31 mph 1014.4mb 58f 47f
9:50 5ft 5s 4s 27 34 mph 1014.5mb 57f 48f
8:50 4.5ft 5s 4s 27 31 mph 1014.5mb 55f 49f
7:50 4.5ft 5s 5s 22 27 mph 1014.4mb 55f 50f
6:50 4.5ft 5s 4s 22 27 mph 1013.6mb 55f 51f
5:50 4.5ft 14s 5s 22 27 mph 1012.8mb 54f 51f
4:50 4ft 4s 4s 22 25 mph 1012.3mb 54f 51f
3:50 3.5ft 15s 5s 25 29 mph 1012.1mb 54f 52f
2:50 3.5ft 14s 7s 13 16 mph 1011.6mb 54f 54f